ΕΜΥ, Εθνική Μετεωρολογική Υπηρεσία - Δελτία Καιρού, Προγνώσεις

ΑΕΡΟΝΑΥΤΙΛΙΑ

GREEK AIRPORTS CODES

EUROPEAN AIRPORTS CODES

LFPO 240930Z 34011KT 300V020 9999 BKN040 09/03 Q1015 TEMPO-SHRA SCT040TCU=